sensor_id;sensor_type;location;lat;lon;timestamp;P1;durP1;ratioP1;P2;durP2;ratioP2
3321;SDS011;1673;51.388;7.086;2023-07-22T00:00:38;17.30;;;8.80;;
3321;SDS011;1673;51.388;7.086;2023-07-22T00:03:08;18.47;;;9.13;;
3321;SDS011;1673;51.388;7.086;2023-07-22T00:05:39;18.52;;;9.10;;
3321;SDS011;1673;51.388;7.086;2023-07-22T00:08:09;19.20;;;9.13;;
3321;SDS011;1673;51.388;7.086;2023-07-22T00:10:40;15.80;;;8.55;;
3321;SDS011;1673;51.388;7.086;2023-07-22T00:13:11;18.05;;;8.80;;
3321;SDS011;1673;51.388;7.086;2023-07-22T00:15:44;16.80;;;8.27;;
3321;SDS011;1673;51.388;7.086;2023-07-22T00:18:14;22.63;;;9.88;;
3321;SDS011;1673;51.388;7.086;2023-07-22T00:20:44;18.30;;;9.40;;
3321;SDS011;1673;51.388;7.086;2023-07-22T00:23:15;17.52;;;8.95;;
3321;SDS011;1673;51.388;7.086;2023-07-22T00:25:46;17.08;;;8.52;;
3321;SDS011;1673;51.388;7.086;2023-07-22T00:28:16;21.08;;;9.93;;
3321;SDS011;1673;51.388;7.086;2023-07-22T00:30:48;17.88;;;8.90;;
3321;SDS011;1673;51.388;7.086;2023-07-22T00:33:20;18.58;;;8.95;;
3321;SDS011;1673;51.388;7.086;2023-07-22T00:35:50;16.45;;;8.95;;
3321;SDS011;1673;51.388;7.086;2023-07-22T00:38:20;19.73;;;9.30;;
3321;SDS011;1673;51.388;7.086;2023-07-22T00:40:50;18.55;;;8.90;;
3321;SDS011;1673;51.388;7.086;2023-07-22T00:43:20;19.80;;;9.57;;
3321;SDS011;1673;51.388;7.086;2023-07-22T00:45:55;17.35;;;9.35;;
3321;SDS011;1673;51.388;7.086;2023-07-22T00:48:25;19.33;;;9.40;;
3321;SDS011;1673;51.388;7.086;2023-07-22T00:50:57;19.63;;;9.45;;
3321;SDS011;1673;51.388;7.086;2023-07-22T00:53:27;18.42;;;9.20;;
3321;SDS011;1673;51.388;7.086;2023-07-22T00:55:57;18.67;;;9.55;;
3321;SDS011;1673;51.388;7.086;2023-07-22T00:58:27;19.83;;;9.73;;
3321;SDS011;1673;51.388;7.086;2023-07-22T01:01:00;20.20;;;9.73;;
3321;SDS011;1673;51.388;7.086;2023-07-22T01:03:30;19.20;;;8.53;;
3321;SDS011;1673;51.388;7.086;2023-07-22T01:06:01;18.77;;;9.13;;
3321;SDS011;1673;51.388;7.086;2023-07-22T01:08:32;19.03;;;10.00;;
3321;SDS011;1673;51.388;7.086;2023-07-22T01:11:02;16.42;;;8.93;;
3321;SDS011;1673;51.388;7.086;2023-07-22T01:13:32;23.50;;;9.32;;
3321;SDS011;1673;51.388;7.086;2023-07-22T01:16:05;19.55;;;8.95;;
3321;SDS011;1673;51.388;7.086;2023-07-22T01:18:35;20.67;;;9.65;;
3321;SDS011;1673;51.388;7.086;2023-07-22T01:21:05;19.30;;;10.20;;
3321;SDS011;1673;51.388;7.086;2023-07-22T01:23:38;20.40;;;9.02;;
3321;SDS011;1673;51.388;7.086;2023-07-22T01:26:09;19.83;;;9.40;;
3321;SDS011;1673;51.388;7.086;2023-07-22T01:28:38;18.27;;;9.15;;
3321;SDS011;1673;51.388;7.086;2023-07-22T01:31:08;20.80;;;9.05;;
3321;SDS011;1673;51.388;7.086;2023-07-22T01:33:38;19.00;;;9.27;;
3321;SDS011;1673;51.388;7.086;2023-07-22T01:36:08;17.75;;;9.10;;
3321;SDS011;1673;51.388;7.086;2023-07-22T01:38:41;17.35;;;8.73;;
3321;SDS011;1673;51.388;7.086;2023-07-22T01:41:12;17.90;;;9.10;;
3321;SDS011;1673;51.388;7.086;2023-07-22T01:43:42;16.73;;;9.05;;
3321;SDS011;1673;51.388;7.086;2023-07-22T01:46:12;18.73;;;9.32;;
3321;SDS011;1673;51.388;7.086;2023-07-22T01:48:43;18.67;;;9.60;;
3321;SDS011;1673;51.388;7.086;2023-07-22T01:51:13;20.55;;;9.18;;
3321;SDS011;1673;51.388;7.086;2023-07-22T01:53:46;17.52;;;8.98;;
3321;SDS011;1673;51.388;7.086;2023-07-22T01:56:16;18.87;;;9.40;;
3321;SDS011;1673;51.388;7.086;2023-07-22T01:58:47;18.13;;;9.02;;
3321;SDS011;1673;51.388;7.086;2023-07-22T02:01:17;18.48;;;9.38;;
3321;SDS011;1673;51.388;7.086;2023-07-22T02:03:47;20.52;;;9.20;;
3321;SDS011;1673;51.388;7.086;2023-07-22T02:06:17;20.65;;;8.77;;
3321;SDS011;1673;51.388;7.086;2023-07-22T02:08:50;18.95;;;9.48;;
3321;SDS011;1673;51.388;7.086;2023-07-22T02:11:20;22.08;;;9.15;;
3321;SDS011;1673;51.388;7.086;2023-07-22T02:13:50;20.60;;;9.20;;
3321;SDS011;1673;51.388;7.086;2023-07-22T02:16:20;18.83;;;9.33;;
3321;SDS011;1673;51.388;7.086;2023-07-22T02:18:51;19.05;;;9.00;;
3321;SDS011;1673;51.388;7.086;2023-07-22T02:21:21;19.33;;;10.03;;
3321;SDS011;1673;51.388;7.086;2023-07-22T02:23:53;19.35;;;10.15;;
3321;SDS011;1673;51.388;7.086;2023-07-22T02:26:23;18.55;;;9.65;;
3321;SDS011;1673;51.388;7.086;2023-07-22T02:28:53;21.02;;;10.15;;
3321;SDS011;1673;51.388;7.086;2023-07-22T02:31:24;21.38;;;9.32;;
3321;SDS011;1673;51.388;7.086;2023-07-22T02:33:54;19.90;;;9.50;;
3321;SDS011;1673;51.388;7.086;2023-07-22T02:36:24;24.80;;;9.70;;
3321;SDS011;1673;51.388;7.086;2023-07-22T02:39:01;20.80;;;9.67;;
3321;SDS011;1673;51.388;7.086;2023-07-22T02:41:32;19.17;;;9.20;;
3321;SDS011;1673;51.388;7.086;2023-07-22T02:44:02;21.48;;;9.90;;
3321;SDS011;1673;51.388;7.086;2023-07-22T02:46:32;19.90;;;9.00;;
3321;SDS011;1673;51.388;7.086;2023-07-22T02:49:03;22.10;;;9.10;;
3321;SDS011;1673;51.388;7.086;2023-07-22T02:51:33;19.50;;;9.03;;
3321;SDS011;1673;51.388;7.086;2023-07-22T02:54:05;17.48;;;8.95;;
3321;SDS011;1673;51.388;7.086;2023-07-22T02:56:36;20.95;;;8.85;;
3321;SDS011;1673;51.388;7.086;2023-07-22T02:59:06;22.50;;;9.50;;
3321;SDS011;1673;51.388;7.086;2023-07-22T03:01:37;19.75;;;8.73;;
3321;SDS011;1673;51.388;7.086;2023-07-22T03:04:12;21.67;;;9.05;;
3321;SDS011;1673;51.388;7.086;2023-07-22T03:06:42;17.05;;;8.43;;
3321;SDS011;1673;51.388;7.086;2023-07-22T03:09:16;17.92;;;9.05;;
3321;SDS011;1673;51.388;7.086;2023-07-22T03:11:48;18.50;;;7.97;;
3321;SDS011;1673;51.388;7.086;2023-07-22T03:14:18;22.52;;;9.10;;
3321;SDS011;1673;51.388;7.086;2023-07-22T03:16:50;22.90;;;8.50;;
3321;SDS011;1673;51.388;7.086;2023-07-22T03:19:20;19.38;;;8.90;;
3321;SDS011;1673;51.388;7.086;2023-07-22T03:21:51;17.63;;;8.38;;
3321;SDS011;1673;51.388;7.086;2023-07-22T03:24:24;23.25;;;9.02;;
3321;SDS011;1673;51.388;7.086;2023-07-22T03:26:54;19.02;;;9.05;;
3321;SDS011;1673;51.388;7.086;2023-07-22T03:29:24;18.05;;;8.20;;
3321;SDS011;1673;51.388;7.086;2023-07-22T03:31:57;16.92;;;8.63;;
3321;SDS011;1673;51.388;7.086;2023-07-22T03:34:27;15.45;;;8.02;;
3321;SDS011;1673;51.388;7.086;2023-07-22T03:36:57;17.27;;;8.05;;
3321;SDS011;1673;51.388;7.086;2023-07-22T03:39:30;17.00;;;8.27;;
3321;SDS011;1673;51.388;7.086;2023-07-22T03:42:00;14.90;;;7.95;;
3321;SDS011;1673;51.388;7.086;2023-07-22T03:44:30;16.80;;;7.70;;
3321;SDS011;1673;51.388;7.086;2023-07-22T03:47:00;19.35;;;7.97;;
3321;SDS011;1673;51.388;7.086;2023-07-22T03:49:30;20.92;;;8.00;;
3321;SDS011;1673;51.388;7.086;2023-07-22T03:52:00;15.93;;;7.93;;
3321;SDS011;1673;51.388;7.086;2023-07-22T03:54:33;17.52;;;7.60;;
3321;SDS011;1673;51.388;7.086;2023-07-22T03:57:03;17.63;;;7.90;;
3321;SDS011;1673;51.388;7.086;2023-07-22T03:59:33;15.65;;;7.47;;
3321;SDS011;1673;51.388;7.086;2023-07-22T04:02:03;16.50;;;7.57;;
3321;SDS011;1673;51.388;7.086;2023-07-22T04:04:34;17.20;;;7.45;;
3321;SDS011;1673;51.388;7.086;2023-07-22T04:07:04;15.30;;;7.25;;
3321;SDS011;1673;51.388;7.086;2023-07-22T04:09:38;17.08;;;7.68;;
3321;SDS011;1673;51.388;7.086;2023-07-22T04:12:08;15.68;;;7.55;;
3321;SDS011;1673;51.388;7.086;2023-07-22T04:14:38;16.73;;;7.60;;
3321;SDS011;1673;51.388;7.086;2023-07-22T04:17:08;15.07;;;7.70;;
3321;SDS011;1673;51.388;7.086;2023-07-22T04:19:38;16.25;;;7.07;;
3321;SDS011;1673;51.388;7.086;2023-07-22T04:22:12;17.85;;;7.50;;
3321;SDS011;1673;51.388;7.086;2023-07-22T04:24:45;17.88;;;7.72;;
3321;SDS011;1673;51.388;7.086;2023-07-22T04:27:15;15.20;;;8.05;;
3321;SDS011;1673;51.388;7.086;2023-07-22T04:29:46;15.35;;;7.10;;
3321;SDS011;1673;51.388;7.086;2023-07-22T04:32:17;15.23;;;7.13;;
3321;SDS011;1673;51.388;7.086;2023-07-22T04:34:47;16.48;;;7.43;;
3321;SDS011;1673;51.388;7.086;2023-07-22T04:37:17;15.15;;;7.28;;
3321;SDS011;1673;51.388;7.086;2023-07-22T04:39:50;15.57;;;8.07;;
3321;SDS011;1673;51.388;7.086;2023-07-22T04:42:21;15.02;;;6.57;;
3321;SDS011;1673;51.388;7.086;2023-07-22T04:44:51;17.98;;;7.25;;
3321;SDS011;1673;51.388;7.086;2023-07-22T04:47:20;13.40;;;7.25;;
3321;SDS011;1673;51.388;7.086;2023-07-22T04:49:51;17.20;;;7.22;;
3321;SDS011;1673;51.388;7.086;2023-07-22T04:52:22;14.13;;;6.55;;
3321;SDS011;1673;51.388;7.086;2023-07-22T04:54:55;15.38;;;7.70;;
3321;SDS011;1673;51.388;7.086;2023-07-22T04:57:25;16.95;;;7.75;;
3321;SDS011;1673;51.388;7.086;2023-07-22T04:59:55;13.88;;;7.10;;
3321;SDS011;1673;51.388;7.086;2023-07-22T05:02:25;16.37;;;7.60;;
3321;SDS011;1673;51.388;7.086;2023-07-22T05:04:55;17.48;;;7.32;;
3321;SDS011;1673;51.388;7.086;2023-07-22T05:07:25;15.13;;;7.70;;
3321;SDS011;1673;51.388;7.086;2023-07-22T05:09:59;17.65;;;6.80;;
3321;SDS011;1673;51.388;7.086;2023-07-22T05:12:29;15.27;;;7.20;;
3321;SDS011;1673;51.388;7.086;2023-07-22T05:15:00;16.15;;;7.50;;
3321;SDS011;1673;51.388;7.086;2023-07-22T05:17:30;14.75;;;7.13;;
3321;SDS011;1673;51.388;7.086;2023-07-22T05:20:00;16.90;;;7.30;;
3321;SDS011;1673;51.388;7.086;2023-07-22T05:22:30;15.65;;;7.50;;
3321;SDS011;1673;51.388;7.086;2023-07-22T05:25:04;18.57;;;8.27;;
3321;SDS011;1673;51.388;7.086;2023-07-22T05:27:36;20.20;;;7.50;;
3321;SDS011;1673;51.388;7.086;2023-07-22T05:30:06;12.98;;;6.50;;
3321;SDS011;1673;51.388;7.086;2023-07-22T05:32:57;14.93;;;7.80;;
3321;SDS011;1673;51.388;7.086;2023-07-22T05:35:27;15.35;;;8.02;;
3321;SDS011;1673;51.388;7.086;2023-07-22T05:37:57;16.70;;;7.40;;
3321;SDS011;1673;51.388;7.086;2023-07-22T05:40:39;16.33;;;7.80;;
3321;SDS011;1673;51.388;7.086;2023-07-22T05:43:09;16.40;;;7.63;;
3321;SDS011;1673;51.388;7.086;2023-07-22T05:45:39;14.88;;;7.30;;
3321;SDS011;1673;51.388;7.086;2023-07-22T05:48:09;13.18;;;7.13;;
3321;SDS011;1673;51.388;7.086;2023-07-22T05:50:38;17.23;;;8.18;;
3321;SDS011;1673;51.388;7.086;2023-07-22T05:53:08;18.10;;;8.40;;
3321;SDS011;1673;51.388;7.086;2023-07-22T05:55:41;21.02;;;7.60;;
3321;SDS011;1673;51.388;7.086;2023-07-22T05:58:15;15.70;;;7.43;;
3321;SDS011;1673;51.388;7.086;2023-07-22T06:00:45;14.07;;;7.47;;
3321;SDS011;1673;51.388;7.086;2023-07-22T06:03:15;17.73;;;7.70;;
3321;SDS011;1673;51.388;7.086;2023-07-22T06:05:45;16.40;;;7.90;;
3321;SDS011;1673;51.388;7.086;2023-07-22T06:08:15;16.25;;;7.72;;
3321;SDS011;1673;51.388;7.086;2023-07-22T06:10:48;17.10;;;8.27;;
3321;SDS011;1673;51.388;7.086;2023-07-22T06:13:18;15.13;;;7.95;;
3321;SDS011;1673;51.388;7.086;2023-07-22T06:15:49;14.73;;;8.30;;
3321;SDS011;1673;51.388;7.086;2023-07-22T06:18:19;18.73;;;8.00;;
3321;SDS011;1673;51.388;7.086;2023-07-22T06:20:49;15.53;;;7.60;;
3321;SDS011;1673;51.388;7.086;2023-07-22T06:23:18;17.00;;;7.65;;
3321;SDS011;1673;51.388;7.086;2023-07-22T06:25:51;17.65;;;7.95;;
3321;SDS011;1673;51.388;7.086;2023-07-22T06:28:21;17.60;;;7.88;;
3321;SDS011;1673;51.388;7.086;2023-07-22T06:30:51;17.67;;;8.00;;
3321;SDS011;1673;51.388;7.086;2023-07-22T06:33:21;15.77;;;8.00;;
3321;SDS011;1673;51.388;7.086;2023-07-22T06:35:51;16.40;;;8.13;;
3321;SDS011;1673;51.388;7.086;2023-07-22T06:38:21;16.23;;;8.07;;
3321;SDS011;1673;51.388;7.086;2023-07-22T06:40:54;17.77;;;8.10;;
3321;SDS011;1673;51.388;7.086;2023-07-22T06:43:24;15.57;;;8.38;;
3321;SDS011;1673;51.388;7.086;2023-07-22T06:45:54;15.27;;;7.70;;
3321;SDS011;1673;51.388;7.086;2023-07-22T06:48:25;16.23;;;8.30;;
3321;SDS011;1673;51.388;7.086;2023-07-22T06:50:55;15.63;;;7.70;;
3321;SDS011;1673;51.388;7.086;2023-07-22T06:53:25;19.67;;;7.80;;
3321;SDS011;1673;51.388;7.086;2023-07-22T06:55:57;17.42;;;8.13;;
3321;SDS011;1673;51.388;7.086;2023-07-22T06:58:27;16.20;;;8.30;;
3321;SDS011;1673;51.388;7.086;2023-07-22T07:01:00;15.25;;;7.10;;
3321;SDS011;1673;51.388;7.086;2023-07-22T07:03:30;17.20;;;7.57;;
3321;SDS011;1673;51.388;7.086;2023-07-22T07:05:59;19.17;;;9.50;;
3321;SDS011;1673;51.388;7.086;2023-07-22T07:08:29;19.23;;;7.60;;
3321;SDS011;1673;51.388;7.086;2023-07-22T07:11:02;15.53;;;7.87;;
3321;SDS011;1673;51.388;7.086;2023-07-22T07:13:32;17.88;;;7.82;;
3321;SDS011;1673;51.388;7.086;2023-07-22T07:18:54;15.68;;;8.40;;
3321;SDS011;1673;51.388;7.086;2023-07-22T07:21:25;19.30;;;8.00;;
3321;SDS011;1673;51.388;7.086;2023-07-22T07:23:55;18.15;;;8.65;;
3321;SDS011;1673;51.388;7.086;2023-07-22T07:26:27;17.48;;;8.30;;
3321;SDS011;1673;51.388;7.086;2023-07-22T07:28:57;17.10;;;8.73;;
3321;SDS011;1673;51.388;7.086;2023-07-22T07:31:27;16.27;;;8.20;;
3321;SDS011;1673;51.388;7.086;2023-07-22T07:33:59;18.50;;;8.80;;
3321;SDS011;1673;51.388;7.086;2023-07-22T07:36:29;18.23;;;8.40;;
3321;SDS011;1673;51.388;7.086;2023-07-22T07:38:59;19.73;;;8.30;;
3321;SDS011;1673;51.388;7.086;2023-07-22T07:41:32;20.00;;;9.00;;
3321;SDS011;1673;51.388;7.086;2023-07-22T07:44:02;18.67;;;8.63;;
3321;SDS011;1673;51.388;7.086;2023-07-22T07:46:32;16.70;;;8.50;;
3321;SDS011;1673;51.388;7.086;2023-07-22T07:49:02;18.60;;;8.77;;
3321;SDS011;1673;51.388;7.086;2023-07-22T07:51:33;19.13;;;8.88;;
3321;SDS011;1673;51.388;7.086;2023-07-22T07:54:03;19.73;;;9.35;;
3321;SDS011;1673;51.388;7.086;2023-07-22T07:56:36;17.07;;;9.00;;
3321;SDS011;1673;51.388;7.086;2023-07-22T07:59:06;18.23;;;8.30;;
3321;SDS011;1673;51.388;7.086;2023-07-22T08:01:37;20.65;;;9.43;;
3321;SDS011;1673;51.388;7.086;2023-07-22T08:04:08;18.57;;;9.37;;
3321;SDS011;1673;51.388;7.086;2023-07-22T08:06:39;20.40;;;9.18;;
3321;SDS011;1673;51.388;7.086;2023-07-22T08:09:10;17.90;;;9.35;;
3321;SDS011;1673;51.388;7.086;2023-07-22T08:11:48;19.75;;;8.85;;
3321;SDS011;1673;51.388;7.086;2023-07-22T08:14:18;20.67;;;9.65;;
3321;SDS011;1673;51.388;7.086;2023-07-22T08:16:49;18.02;;;9.00;;
3321;SDS011;1673;51.388;7.086;2023-07-22T08:19:19;20.13;;;9.25;;
3321;SDS011;1673;51.388;7.086;2023-07-22T08:21:52;20.45;;;9.57;;
3321;SDS011;1673;51.388;7.086;2023-07-22T08:24:22;17.25;;;8.73;;
3321;SDS011;1673;51.388;7.086;2023-07-22T08:26:55;20.75;;;9.88;;
3321;SDS011;1673;51.388;7.086;2023-07-22T08:29:25;19.50;;;9.38;;
3321;SDS011;1673;51.388;7.086;2023-07-22T08:31:55;17.27;;;9.38;;
3321;SDS011;1673;51.388;7.086;2023-07-22T08:34:25;17.27;;;9.05;;
3321;SDS011;1673;51.388;7.086;2023-07-22T08:36:55;21.52;;;9.00;;
3321;SDS011;1673;51.388;7.086;2023-07-22T08:39:25;18.80;;;8.98;;
3321;SDS011;1673;51.388;7.086;2023-07-22T08:41:58;17.25;;;9.25;;
3321;SDS011;1673;51.388;7.086;2023-07-22T08:44:32;18.80;;;9.73;;
3321;SDS011;1673;51.388;7.086;2023-07-22T08:47:04;17.45;;;8.60;;
3321;SDS011;1673;51.388;7.086;2023-07-22T08:49:35;20.00;;;9.57;;
3321;SDS011;1673;51.388;7.086;2023-07-22T08:52:05;16.00;;;8.90;;
3321;SDS011;1673;51.388;7.086;2023-07-22T08:54:36;19.13;;;9.40;;
3321;SDS011;1673;51.388;7.086;2023-07-22T08:57:09;21.65;;;9.50;;
3321;SDS011;1673;51.388;7.086;2023-07-22T08:59:41;20.90;;;8.70;;
3321;SDS011;1673;51.388;7.086;2023-07-22T09:02:12;21.38;;;8.77;;
3321;SDS011;1673;51.388;7.086;2023-07-22T09:04:42;19.52;;;8.50;;
3321;SDS011;1673;51.388;7.086;2023-07-22T09:07:12;19.13;;;8.20;;
3321;SDS011;1673;51.388;7.086;2023-07-22T09:09:45;13.40;;;7.30;;
3321;SDS011;1673;51.388;7.086;2023-07-22T09:12:18;16.67;;;8.00;;
3321;SDS011;1673;51.388;7.086;2023-07-22T09:14:50;17.63;;;7.55;;
3321;SDS011;1673;51.388;7.086;2023-07-22T09:17:20;13.52;;;6.80;;
3321;SDS011;1673;51.388;7.086;2023-07-22T09:19:51;12.07;;;6.40;;
3321;SDS011;1673;51.388;7.086;2023-07-22T09:22:24;14.40;;;6.15;;
3321;SDS011;1673;51.388;7.086;2023-07-22T09:25:04;16.27;;;6.57;;
3321;SDS011;1673;51.388;7.086;2023-07-22T09:27:45;13.77;;;6.80;;
3321;SDS011;1673;51.388;7.086;2023-07-22T09:30:23;12.48;;;6.03;;
3321;SDS011;1673;51.388;7.086;2023-07-22T09:32:54;13.63;;;6.83;;
3321;SDS011;1673;51.388;7.086;2023-07-22T09:35:26;18.02;;;7.00;;
3321;SDS011;1673;51.388;7.086;2023-07-22T09:37:58;12.60;;;6.68;;
3321;SDS011;1673;51.388;7.086;2023-07-22T09:40:28;16.38;;;6.97;;
3321;SDS011;1673;51.388;7.086;2023-07-22T09:43:02;17.42;;;7.90;;
3321;SDS011;1673;51.388;7.086;2023-07-22T09:45:33;15.73;;;7.30;;
3321;SDS011;1673;51.388;7.086;2023-07-22T09:48:04;13.65;;;6.70;;
3321;SDS011;1673;51.388;7.086;2023-07-22T09:50:35;15.85;;;6.70;;
3321;SDS011;1673;51.388;7.086;2023-07-22T09:53:06;11.77;;;5.50;;
3321;SDS011;1673;51.388;7.086;2023-07-22T09:55:36;13.80;;;6.55;;
3321;SDS011;1673;51.388;7.086;2023-07-22T09:58:09;14.63;;;6.40;;
3321;SDS011;1673;51.388;7.086;2023-07-22T10:00:42;13.05;;;6.00;;
3321;SDS011;1673;51.388;7.086;2023-07-22T10:03:17;13.60;;;6.40;;
3321;SDS011;1673;51.388;7.086;2023-07-22T10:05:48;12.30;;;5.68;;
3321;SDS011;1673;51.388;7.086;2023-07-22T10:08:20;13.20;;;5.93;;
3321;SDS011;1673;51.388;7.086;2023-07-22T10:10:53;12.20;;;6.00;;
3321;SDS011;1673;51.388;7.086;2023-07-22T10:13:26;13.07;;;5.93;;
3321;SDS011;1673;51.388;7.086;2023-07-22T10:15:56;10.73;;;5.20;;
3321;SDS011;1673;51.388;7.086;2023-07-22T10:18:27;12.90;;;5.00;;
3321;SDS011;1673;51.388;7.086;2023-07-22T10:20:57;11.48;;;5.30;;
3321;SDS011;1673;51.388;7.086;2023-07-22T10:23:28;12.77;;;5.93;;
3321;SDS011;1673;51.388;7.086;2023-07-22T10:25:59;13.85;;;5.28;;
3321;SDS011;1673;51.388;7.086;2023-07-22T10:28:32;11.27;;;5.50;;
3321;SDS011;1673;51.388;7.086;2023-07-22T10:31:02;12.93;;;5.55;;
3321;SDS011;1673;51.388;7.086;2023-07-22T10:33:33;12.52;;;5.95;;
3321;SDS011;1673;51.388;7.086;2023-07-22T10:36:06;13.25;;;5.65;;
3321;SDS011;1673;51.388;7.086;2023-07-22T10:38:37;10.27;;;5.38;;
3321;SDS011;1673;51.388;7.086;2023-07-22T10:41:16;10.98;;;4.75;;
3321;SDS011;1673;51.388;7.086;2023-07-22T10:43:55;10.00;;;5.30;;
3321;SDS011;1673;51.388;7.086;2023-07-22T10:46:31;11.70;;;4.93;;
3321;SDS011;1673;51.388;7.086;2023-07-22T10:49:09;15.60;;;4.70;;
3321;SDS011;1673;51.388;7.086;2023-07-22T10:51:40;9.40;;;4.10;;
3321;SDS011;1673;51.388;7.086;2023-07-22T10:54:10;9.45;;;3.95;;
3321;SDS011;1673;51.388;7.086;2023-07-22T10:56:41;9.00;;;3.63;;
3321;SDS011;1673;51.388;7.086;2023-07-22T10:59:14;7.70;;;3.60;;
3321;SDS011;1673;51.388;7.086;2023-07-22T11:01:44;9.13;;;4.00;;
3321;SDS011;1673;51.388;7.086;2023-07-22T11:04:21;8.25;;;3.80;;
3321;SDS011;1673;51.388;7.086;2023-07-22T11:07:28;8.48;;;3.25;;
3321;SDS011;1673;51.388;7.086;2023-07-22T11:10:10;9.73;;;4.00;;
3321;SDS011;1673;51.388;7.086;2023-07-22T11:12:43;6.97;;;3.60;;
3321;SDS011;1673;51.388;7.086;2023-07-22T11:15:14;10.40;;;2.97;;
3321;SDS011;1673;51.388;7.086;2023-07-22T11:17:45;12.13;;;4.70;;
3321;SDS011;1673;51.388;7.086;2023-07-22T11:20:15;11.50;;;3.70;;
3321;SDS011;1673;51.388;7.086;2023-07-22T11:22:45;8.45;;;3.70;;
3321;SDS011;1673;51.388;7.086;2023-07-22T11:25:18;8.25;;;3.65;;
3321;SDS011;1673;51.388;7.086;2023-07-22T11:27:48;9.48;;;3.50;;
3321;SDS011;1673;51.388;7.086;2023-07-22T11:30:21;9.03;;;3.53;;
3321;SDS011;1673;51.388;7.086;2023-07-22T11:32:52;7.10;;;3.50;;
3321;SDS011;1673;51.388;7.086;2023-07-22T11:35:22;10.82;;;3.60;;
3321;SDS011;1673;51.388;7.086;2023-07-22T11:38:00;7.32;;;3.00;;
3321;SDS011;1673;51.388;7.086;2023-07-22T11:40:34;7.73;;;3.50;;
3321;SDS011;1673;51.388;7.086;2023-07-22T11:43:04;9.13;;;3.60;;
3321;SDS011;1673;51.388;7.086;2023-07-22T11:45:37;10.73;;;3.60;;
3321;SDS011;1673;51.388;7.086;2023-07-22T11:48:09;8.33;;;3.37;;
3321;SDS011;1673;51.388;7.086;2023-07-22T11:50:39;7.93;;;3.40;;
3321;SDS011;1673;51.388;7.086;2023-07-22T11:53:09;6.40;;;3.05;;
3321;SDS011;1673;51.388;7.086;2023-07-22T11:55:43;9.38;;;3.40;;
3321;SDS011;1673;51.388;7.086;2023-07-22T11:58:13;9.38;;;3.25;;
3321;SDS011;1673;51.388;7.086;2023-07-22T12:00:46;5.97;;;3.10;;
3321;SDS011;1673;51.388;7.086;2023-07-22T12:03:31;8.55;;;3.30;;
3321;SDS011;1673;51.388;7.086;2023-07-22T12:06:06;6.38;;;2.80;;
3321;SDS011;1673;51.388;7.086;2023-07-22T12:08:36;8.38;;;2.95;;
3321;SDS011;1673;51.388;7.086;2023-07-22T12:11:17;7.57;;;3.00;;
3321;SDS011;1673;51.388;7.086;2023-07-22T12:13:54;7.13;;;3.00;;
3321;SDS011;1673;51.388;7.086;2023-07-22T12:16:37;6.80;;;2.50;;
3321;SDS011;1673;51.388;7.086;2023-07-22T12:19:09;7.53;;;3.00;;
3321;SDS011;1673;51.388;7.086;2023-07-22T12:21:39;7.72;;;2.50;;
3321;SDS011;1673;51.388;7.086;2023-07-22T12:24:13;5.70;;;2.30;;
3321;SDS011;1673;51.388;7.086;2023-07-22T12:26:43;9.30;;;2.80;;
3321;SDS011;1673;51.388;7.086;2023-07-22T12:29:13;6.80;;;2.60;;
3321;SDS011;1673;51.388;7.086;2023-07-22T12:31:46;6.28;;;2.60;;
3321;SDS011;1673;51.388;7.086;2023-07-22T12:34:16;7.40;;;2.60;;
3321;SDS011;1673;51.388;7.086;2023-07-22T12:36:46;9.90;;;2.80;;
3321;SDS011;1673;51.388;7.086;2023-07-22T12:39:16;6.45;;;2.80;;
3321;SDS011;1673;51.388;7.086;2023-07-22T12:41:46;5.60;;;2.40;;
3321;SDS011;1673;51.388;7.086;2023-07-22T12:44:16;8.65;;;2.90;;
3321;SDS011;1673;51.388;7.086;2023-07-22T12:46:49;6.70;;;3.00;;
3321;SDS011;1673;51.388;7.086;2023-07-22T12:49:20;7.13;;;2.83;;
3321;SDS011;1673;51.388;7.086;2023-07-22T12:51:50;9.98;;;3.67;;
3321;SDS011;1673;51.388;7.086;2023-07-22T12:54:20;8.50;;;3.10;;
3321;SDS011;1673;51.388;7.086;2023-07-22T12:56:51;8.02;;;3.40;;
3321;SDS011;1673;51.388;7.086;2023-07-22T12:59:21;8.23;;;3.50;;
3321;SDS011;1673;51.388;7.086;2023-07-22T13:01:53;6.50;;;3.65;;
3321;SDS011;1673;51.388;7.086;2023-07-22T13:04:24;9.18;;;3.90;;
3321;SDS011;1673;51.388;7.086;2023-07-22T13:06:54;11.10;;;4.40;;
3321;SDS011;1673;51.388;7.086;2023-07-22T13:09:24;10.10;;;3.85;;
3321;SDS011;1673;51.388;7.086;2023-07-22T13:11:54;8.20;;;3.40;;
3321;SDS011;1673;51.388;7.086;2023-07-22T13:14:24;14.43;;;3.33;;
3321;SDS011;1673;51.388;7.086;2023-07-22T13:16:57;9.60;;;3.50;;
3321;SDS011;1673;51.388;7.086;2023-07-22T13:19:27;8.43;;;3.87;;
3321;SDS011;1673;51.388;7.086;2023-07-22T13:21:57;9.32;;;4.00;;
3321;SDS011;1673;51.388;7.086;2023-07-22T13:24:27;7.20;;;3.30;;
3321;SDS011;1673;51.388;7.086;2023-07-22T13:26:57;7.70;;;3.60;;
3321;SDS011;1673;51.388;7.086;2023-07-22T13:29:27;7.63;;;3.45;;
3321;SDS011;1673;51.388;7.086;2023-07-22T13:31:59;8.10;;;3.47;;
3321;SDS011;1673;51.388;7.086;2023-07-22T13:34:31;9.52;;;3.42;;
3321;SDS011;1673;51.388;7.086;2023-07-22T13:37:01;8.43;;;3.20;;
3321;SDS011;1673;51.388;7.086;2023-07-22T13:39:33;9.48;;;3.55;;
3321;SDS011;1673;51.388;7.086;2023-07-22T13:42:03;8.03;;;3.63;;
3321;SDS011;1673;51.388;7.086;2023-07-22T13:44:33;9.55;;;3.80;;
3321;SDS011;1673;51.388;7.086;2023-07-22T13:47:08;6.60;;;3.38;;
3321;SDS011;1673;51.388;7.086;2023-07-22T13:49:38;8.20;;;3.67;;
3321;SDS011;1673;51.388;7.086;2023-07-22T13:52:08;7.43;;;2.87;;
3321;SDS011;1673;51.388;7.086;2023-07-22T13:54:38;9.65;;;3.42;;
3321;SDS011;1673;51.388;7.086;2023-07-22T13:57:08;7.35;;;3.42;;
3321;SDS011;1673;51.388;7.086;2023-07-22T13:59:38;7.22;;;3.25;;
3321;SDS011;1673;51.388;7.086;2023-07-22T14:02:11;7.13;;;3.08;;
3321;SDS011;1673;51.388;7.086;2023-07-22T14:04:41;9.88;;;3.30;;
3321;SDS011;1673;51.388;7.086;2023-07-22T14:07:11;8.93;;;3.20;;
3321;SDS011;1673;51.388;7.086;2023-07-22T14:09:41;6.72;;;3.10;;
3321;SDS011;1673;51.388;7.086;2023-07-22T14:12:11;10.05;;;3.10;;
3321;SDS011;1673;51.388;7.086;2023-07-22T14:14:41;8.07;;;3.28;;
3321;SDS011;1673;51.388;7.086;2023-07-22T14:17:14;8.38;;;3.30;;
3321;SDS011;1673;51.388;7.086;2023-07-22T14:19:44;7.47;;;3.05;;
3321;SDS011;1673;51.388;7.086;2023-07-22T14:22:14;9.00;;;3.40;;
3321;SDS011;1673;51.388;7.086;2023-07-22T14:24:43;8.88;;;3.50;;
3321;SDS011;1673;51.388;7.086;2023-07-22T14:27:13;11.02;;;3.40;;
3321;SDS011;1673;51.388;7.086;2023-07-22T14:29:43;7.00;;;3.05;;
3321;SDS011;1673;51.388;7.086;2023-07-22T14:32:16;9.52;;;3.80;;
3321;SDS011;1673;51.388;7.086;2023-07-22T14:34:46;9.30;;;3.90;;
3321;SDS011;1673;51.388;7.086;2023-07-22T14:37:17;7.20;;;3.60;;
3321;SDS011;1673;51.388;7.086;2023-07-22T14:39:47;12.07;;;3.75;;
3321;SDS011;1673;51.388;7.086;2023-07-22T14:42:16;13.10;;;3.80;;
3321;SDS011;1673;51.388;7.086;2023-07-22T14:44:46;8.98;;;3.55;;
3321;SDS011;1673;51.388;7.086;2023-07-22T14:47:19;9.20;;;3.70;;
3321;SDS011;1673;51.388;7.086;2023-07-22T14:49:49;10.60;;;3.63;;
3321;SDS011;1673;51.388;7.086;2023-07-22T14:52:19;7.53;;;3.67;;
3321;SDS011;1673;51.388;7.086;2023-07-22T14:54:50;10.07;;;3.47;;
3321;SDS011;1673;51.388;7.086;2023-07-22T14:57:20;11.25;;;3.55;;
3321;SDS011;1673;51.388;7.086;2023-07-22T14:59:53;8.48;;;3.55;;
3321;SDS011;1673;51.388;7.086;2023-07-22T15:02:26;9.02;;;3.35;;
3321;SDS011;1673;51.388;7.086;2023-07-22T15:04:56;10.18;;;3.70;;
3321;SDS011;1673;51.388;7.086;2023-07-22T15:07:26;9.88;;;4.10;;
3321;SDS011;1673;51.388;7.086;2023-07-22T15:09:57;10.70;;;3.60;;
3321;SDS011;1673;51.388;7.086;2023-07-22T15:12:28;7.75;;;4.00;;
3321;SDS011;1673;51.388;7.086;2023-07-22T15:14:58;7.93;;;3.20;;
3321;SDS011;1673;51.388;7.086;2023-07-22T15:17:31;7.45;;;3.30;;
3321;SDS011;1673;51.388;7.086;2023-07-22T15:20:01;8.02;;;3.75;;
3321;SDS011;1673;51.388;7.086;2023-07-22T15:22:32;8.27;;;3.97;;
3321;SDS011;1673;51.388;7.086;2023-07-22T15:25:03;8.32;;;3.60;;
3321;SDS011;1673;51.388;7.086;2023-07-22T15:27:34;7.43;;;3.40;;
3321;SDS011;1673;51.388;7.086;2023-07-22T15:30:04;12.27;;;3.80;;
3321;SDS011;1673;51.388;7.086;2023-07-22T15:32:38;8.32;;;3.33;;